sensor_id;sensor_type;location;lat;lon;timestamp;pressure;altitude;pressure_sealevel;temperature;humidity
69411;BME280;56604;48.652;9.194;2023-09-12T00:00:50;95949.28;;;20.89;70.26
69411;BME280;56604;48.652;9.194;2023-09-12T00:03:19;95942.53;;;20.83;70.45
69411;BME280;56604;48.652;9.194;2023-09-12T00:05:53;95941.94;;;20.77;70.17
69411;BME280;56604;48.652;9.194;2023-09-12T00:08:19;95940.88;;;20.70;70.78
69411;BME280;56604;48.652;9.194;2023-09-12T00:10:44;95941.56;;;20.58;71.35
69411;BME280;56604;48.652;9.194;2023-09-12T00:13:09;95936.41;;;20.44;72.38
69411;BME280;56604;48.652;9.194;2023-09-12T00:15:35;95938.56;;;20.51;72.28
69411;BME280;56604;48.652;9.194;2023-09-12T00:18:00;95937.81;;;20.41;72.24
69411;BME280;56604;48.652;9.194;2023-09-12T00:20:25;95924.31;;;20.47;72.59
69411;BME280;56604;48.652;9.194;2023-09-12T00:22:50;95927.09;;;20.50;72.82
69411;BME280;56604;48.652;9.194;2023-09-12T00:25:18;95932.47;;;20.41;73.22
69411;BME280;56604;48.652;9.194;2023-09-12T00:27:43;95931.22;;;20.39;73.51
69411;BME280;56604;48.652;9.194;2023-09-12T00:30:09;95929.38;;;20.31;73.58
69411;BME280;56604;48.652;9.194;2023-09-12T00:32:34;95927.50;;;20.22;74.04
69411;BME280;56604;48.652;9.194;2023-09-12T00:35:00;95927.53;;;20.14;74.03
69411;BME280;56604;48.652;9.194;2023-09-12T00:37:25;95919.97;;;20.25;74.07
69411;BME280;56604;48.652;9.194;2023-09-12T00:39:50;95919.03;;;20.20;73.74
69411;BME280;56604;48.652;9.194;2023-09-12T00:42:15;95925.41;;;20.37;73.11
69411;BME280;56604;48.652;9.194;2023-09-12T00:44:41;95925.88;;;20.39;73.23
69411;BME280;56604;48.652;9.194;2023-09-12T00:47:06;95929.16;;;20.53;73.58
69411;BME280;56604;48.652;9.194;2023-09-12T00:49:32;95927.88;;;20.51;73.42
69411;BME280;56604;48.652;9.194;2023-09-12T00:51:58;95922.75;;;20.37;74.13
69411;BME280;56604;48.652;9.194;2023-09-12T00:54:24;95918.69;;;20.31;74.52
69411;BME280;56604;48.652;9.194;2023-09-12T00:56:49;95914.34;;;20.09;75.37
69411;BME280;56604;48.652;9.194;2023-09-12T00:59:16;95911.84;;;20.12;75.28
69411;BME280;56604;48.652;9.194;2023-09-12T01:01:42;95912.63;;;20.13;74.61
69411;BME280;56604;48.652;9.194;2023-09-12T01:04:09;95916.06;;;20.13;74.00
69411;BME280;56604;48.652;9.194;2023-09-12T01:06:34;95916.69;;;20.19;73.71
69411;BME280;56604;48.652;9.194;2023-09-12T01:09:00;95909.63;;;20.14;73.29
69411;BME280;56604;48.652;9.194;2023-09-12T01:11:26;95911.19;;;20.15;72.67
69411;BME280;56604;48.652;9.194;2023-09-12T01:13:52;95914.31;;;20.17;72.40
69411;BME280;56604;48.652;9.194;2023-09-12T01:16:17;95912.44;;;20.18;71.97
69411;BME280;56604;48.652;9.194;2023-09-12T01:18:42;95913.22;;;20.18;72.14
69411;BME280;56604;48.652;9.194;2023-09-12T01:27:27;95919.28;;;20.36;70.42
69411;BME280;56604;48.652;9.194;2023-09-12T01:29:57;95914.09;;;20.40;69.54
69411;BME280;56604;48.652;9.194;2023-09-12T01:32:24;95918.34;;;20.41;70.11
69411;BME280;56604;48.652;9.194;2023-09-12T01:34:50;95923.22;;;20.39;70.35
69411;BME280;56604;48.652;9.194;2023-09-12T01:37:15;95915.06;;;20.35;70.46
69411;BME280;56604;48.652;9.194;2023-09-12T01:39:40;95915.22;;;20.39;70.52
69411;BME280;56604;48.652;9.194;2023-09-12T01:42:08;95913.19;;;20.36;70.81
69411;BME280;56604;48.652;9.194;2023-09-12T01:44:36;95919.31;;;20.28;71.05
69411;BME280;56604;48.652;9.194;2023-09-12T01:47:03;95917.78;;;20.27;71.16
69411;BME280;56604;48.652;9.194;2023-09-12T01:49:30;95918.69;;;20.31;71.56
69411;BME280;56604;48.652;9.194;2023-09-12T01:51:57;95914.91;;;20.32;71.31
69411;BME280;56604;48.652;9.194;2023-09-12T01:54:26;95920.06;;;20.37;71.01
69411;BME280;56604;48.652;9.194;2023-09-12T01:56:53;95917.13;;;20.30;71.32
69411;BME280;56604;48.652;9.194;2023-09-12T01:59:22;95917.25;;;20.33;71.52
69411;BME280;56604;48.652;9.194;2023-09-12T02:01:48;95919.59;;;20.35;71.77
69411;BME280;56604;48.652;9.194;2023-09-12T02:04:13;95918.72;;;20.22;72.04
69411;BME280;56604;48.652;9.194;2023-09-12T02:06:38;95910.41;;;20.15;72.12
69411;BME280;56604;48.652;9.194;2023-09-12T02:09:04;95910.25;;;20.11;72.30
69411;BME280;56604;48.652;9.194;2023-09-12T02:11:29;95918.00;;;19.95;73.06
69411;BME280;56604;48.652;9.194;2023-09-12T02:13:54;95912.50;;;19.92;73.61
69411;BME280;56604;48.652;9.194;2023-09-12T02:16:19;95915.16;;;19.83;73.47
69411;BME280;56604;48.652;9.194;2023-09-12T02:18:45;95911.88;;;19.77;73.94
69411;BME280;56604;48.652;9.194;2023-09-12T02:21:10;95914.41;;;19.83;73.70
69411;BME280;56604;48.652;9.194;2023-09-12T02:23:35;95912.34;;;19.80;73.62
69411;BME280;56604;48.652;9.194;2023-09-12T02:26:01;95918.31;;;19.85;73.33
69411;BME280;56604;48.652;9.194;2023-09-12T02:28:26;95907.78;;;19.89;73.07
69411;BME280;56604;48.652;9.194;2023-09-12T02:30:52;95910.94;;;19.91;73.21
69411;BME280;56604;48.652;9.194;2023-09-12T02:33:17;95904.03;;;19.90;73.26
69411;BME280;56604;48.652;9.194;2023-09-12T02:35:42;95905.13;;;19.89;73.38
69411;BME280;56604;48.652;9.194;2023-09-12T02:38:07;95904.19;;;19.85;73.46
69411;BME280;56604;48.652;9.194;2023-09-12T02:40:33;95896.34;;;19.80;73.40
69411;BME280;56604;48.652;9.194;2023-09-12T02:42:58;95889.91;;;19.81;72.83
69411;BME280;56604;48.652;9.194;2023-09-12T02:45:23;95896.19;;;19.85;72.44
69411;BME280;56604;48.652;9.194;2023-09-12T02:47:49;95894.78;;;19.87;72.00
69411;BME280;56604;48.652;9.194;2023-09-12T02:50:14;95889.59;;;19.91;71.89
69411;BME280;56604;48.652;9.194;2023-09-12T02:52:39;95889.59;;;19.91;71.58
69411;BME280;56604;48.652;9.194;2023-09-12T02:55:05;95891.00;;;19.88;71.50
69411;BME280;56604;48.652;9.194;2023-09-12T02:57:31;95898.88;;;19.85;71.64
69411;BME280;56604;48.652;9.194;2023-09-12T02:59:56;95894.16;;;19.82;72.12
69411;BME280;56604;48.652;9.194;2023-09-12T03:02:21;95891.81;;;19.71;72.91
69411;BME280;56604;48.652;9.194;2023-09-12T03:04:47;95889.31;;;19.66;73.20
69411;BME280;56604;48.652;9.194;2023-09-12T03:07:12;95895.22;;;19.63;73.45
69411;BME280;56604;48.652;9.194;2023-09-12T03:09:37;95889.75;;;19.60;73.93
69411;BME280;56604;48.652;9.194;2023-09-12T03:12:04;95882.41;;;19.48;74.40
69411;BME280;56604;48.652;9.194;2023-09-12T03:14:29;95889.13;;;19.45;75.17
69411;BME280;56604;48.652;9.194;2023-09-12T03:16:55;95889.59;;;19.56;75.98
69411;BME280;56604;48.652;9.194;2023-09-12T03:19:21;95891.78;;;19.63;76.01
69411;BME280;56604;48.652;9.194;2023-09-12T03:21:46;95883.34;;;19.69;75.64
69411;BME280;56604;48.652;9.194;2023-09-12T03:24:12;95887.44;;;19.67;75.91
69411;BME280;56604;48.652;9.194;2023-09-12T03:26:37;95888.34;;;19.62;75.69
69411;BME280;56604;48.652;9.194;2023-09-12T03:29:03;95886.94;;;19.56;75.79
69411;BME280;56604;48.652;9.194;2023-09-12T03:31:29;95882.25;;;19.53;76.54
69411;BME280;56604;48.652;9.194;2023-09-12T03:33:54;95882.41;;;19.48;76.83
69411;BME280;56604;48.652;9.194;2023-09-12T03:36:19;95884.13;;;19.52;76.53
69411;BME280;56604;48.652;9.194;2023-09-12T03:38:45;95877.22;;;19.43;76.72
69411;BME280;56604;48.652;9.194;2023-09-12T03:41:11;95878.63;;;19.49;76.63
69411;BME280;56604;48.652;9.194;2023-09-12T03:43:36;95872.38;;;19.45;76.10
69411;BME280;56604;48.652;9.194;2023-09-12T03:46:02;95871.59;;;19.44;76.04
69411;BME280;56604;48.652;9.194;2023-09-12T03:48:29;95866.41;;;19.48;75.96
69411;BME280;56604;48.652;9.194;2023-09-12T03:50:55;95868.59;;;19.46;76.35
69411;BME280;56604;48.652;9.194;2023-09-12T03:53:21;95871.41;;;19.41;76.26
69411;BME280;56604;48.652;9.194;2023-09-12T03:55:46;95873.63;;;19.39;76.48
69411;BME280;56604;48.652;9.194;2023-09-12T03:58:12;95875.03;;;19.36;76.53
69411;BME280;56604;48.652;9.194;2023-09-12T04:00:37;95878.63;;;19.31;76.95
69411;BME280;56604;48.652;9.194;2023-09-12T04:03:03;95868.28;;;19.39;77.24
69411;BME280;56604;48.652;9.194;2023-09-12T04:05:28;95878.00;;;19.35;76.83
69411;BME280;56604;48.652;9.194;2023-09-12T04:07:53;95880.22;;;19.32;76.00
69411;BME280;56604;48.652;9.194;2023-09-12T04:10:22;95879.59;;;19.36;75.83
69411;BME280;56604;48.652;9.194;2023-09-12T04:12:47;95884.44;;;19.33;75.97
69411;BME280;56604;48.652;9.194;2023-09-12T04:15:13;95877.53;;;19.41;76.34
69411;BME280;56604;48.652;9.194;2023-09-12T04:17:38;95888.03;;;19.38;76.20
69411;BME280;56604;48.652;9.194;2023-09-12T04:20:04;95882.06;;;19.41;77.04
69411;BME280;56604;48.652;9.194;2023-09-12T04:22:30;95884.28;;;19.39;76.80
69411;BME280;56604;48.652;9.194;2023-09-12T04:24:55;95887.59;;;19.36;76.65
69411;BME280;56604;48.652;9.194;2023-09-12T04:27:20;95888.66;;;19.35;76.80
69411;BME280;56604;48.652;9.194;2023-09-12T04:29:45;95883.31;;;19.35;76.53
69411;BME280;56604;48.652;9.194;2023-09-12T04:32:11;95887.59;;;19.36;76.60
69411;BME280;56604;48.652;9.194;2023-09-12T04:34:36;95883.66;;;19.24;76.35
69411;BME280;56604;48.652;9.194;2023-09-12T04:37:02;95884.59;;;19.28;76.35
69411;BME280;56604;48.652;9.194;2023-09-12T04:39:28;95875.19;;;19.31;76.32
69411;BME280;56604;48.652;9.194;2023-09-12T04:41:53;95873.16;;;19.28;76.20
69411;BME280;56604;48.652;9.194;2023-09-12T04:44:18;95872.50;;;19.31;75.48
69411;BME280;56604;48.652;9.194;2023-09-12T04:46:44;95872.22;;;19.32;75.25
69411;BME280;56604;48.652;9.194;2023-09-12T04:49:09;95871.59;;;19.36;75.09
69411;BME280;56604;48.652;9.194;2023-09-12T04:51:34;95869.06;;;19.39;75.21
69411;BME280;56604;48.652;9.194;2023-09-12T04:54:00;95872.38;;;19.45;74.95
69411;BME280;56604;48.652;9.194;2023-09-12T04:56:25;95870.78;;;19.52;74.98
69411;BME280;56604;48.652;9.194;2023-09-12T04:58:50;95871.25;;;19.54;74.48
69411;BME280;56604;48.652;9.194;2023-09-12T05:01:16;95869.69;;;19.53;74.72
69411;BME280;56604;48.652;9.194;2023-09-12T05:03:42;95873.28;;;19.49;74.37
69411;BME280;56604;48.652;9.194;2023-09-12T05:06:07;95867.16;;;19.57;74.74
69411;BME280;56604;48.652;9.194;2023-09-12T05:08:33;95878.94;;;19.56;73.73
69411;BME280;56604;48.652;9.194;2023-09-12T05:10:58;95870.78;;;19.61;73.91
69411;BME280;56604;48.652;9.194;2023-09-12T05:13:23;95880.81;;;19.64;74.29
69411;BME280;56604;48.652;9.194;2023-09-12T05:15:49;95871.22;;;19.81;73.73
69411;BME280;56604;48.652;9.194;2023-09-12T05:18:14;95870.22;;;20.11;72.84
69411;BME280;56604;48.652;9.194;2023-09-12T05:20:39;95866.03;;;20.40;71.62
69411;BME280;56604;48.652;9.194;2023-09-12T05:23:05;95865.19;;;20.57;70.21
69411;BME280;56604;48.652;9.194;2023-09-12T05:25:30;95869.75;;;20.86;68.97
69411;BME280;56604;48.652;9.194;2023-09-12T05:27:56;95870.03;;;21.14;68.34
69411;BME280;56604;48.652;9.194;2023-09-12T05:30:21;95868.75;;;21.41;66.53
69411;BME280;56604;48.652;9.194;2023-09-12T05:32:47;95878.00;;;21.65;65.31
69411;BME280;56604;48.652;9.194;2023-09-12T05:35:12;95881.19;;;21.91;64.56
69411;BME280;56604;48.652;9.194;2023-09-12T05:37:37;95887.13;;;22.30;63.30
69411;BME280;56604;48.652;9.194;2023-09-12T05:40:03;95886.47;;;22.58;62.75
69411;BME280;56604;48.652;9.194;2023-09-12T05:42:29;95890.25;;;22.81;61.96
69411;BME280;56604;48.652;9.194;2023-09-12T05:44:54;95890.06;;;22.74;61.75
69411;BME280;56604;48.652;9.194;2023-09-12T05:47:21;95892.16;;;23.18;60.32
69411;BME280;56604;48.652;9.194;2023-09-12T05:49:47;95897.34;;;23.39;60.03
69411;BME280;56604;48.652;9.194;2023-09-12T05:52:12;95899.63;;;23.12;60.30
69411;BME280;56604;48.652;9.194;2023-09-12T05:54:39;95891.81;;;23.07;60.78
69411;BME280;56604;48.652;9.194;2023-09-12T05:57:06;95894.50;;;22.70;61.93
69411;BME280;56604;48.652;9.194;2023-09-12T05:59:31;95897.06;;;22.66;62.26
69411;BME280;56604;48.652;9.194;2023-09-12T06:01:57;95903.44;;;22.37;63.49
69411;BME280;56604;48.652;9.194;2023-09-12T06:04:22;95901.88;;;22.61;62.83
69411;BME280;56604;48.652;9.194;2023-09-12T06:06:47;95909.16;;;23.50;60.55
69411;BME280;56604;48.652;9.194;2023-09-12T06:09:13;95897.28;;;24.51;58.20
69411;BME280;56604;48.652;9.194;2023-09-12T06:11:38;95901.66;;;25.62;54.75
69411;BME280;56604;48.652;9.194;2023-09-12T06:14:03;95899.41;;;25.83;53.92
69411;BME280;56604;48.652;9.194;2023-09-12T06:16:29;95908.03;;;25.53;54.16
69411;BME280;56604;48.652;9.194;2023-09-12T06:18:54;95914.25;;;25.38;54.38
69411;BME280;56604;48.652;9.194;2023-09-12T06:21:20;95905.91;;;24.92;56.44
69411;BME280;56604;48.652;9.194;2023-09-12T06:23:47;95906.28;;;24.90;56.19
69411;BME280;56604;48.652;9.194;2023-09-12T06:26:12;95908.34;;;24.34;57.29
69411;BME280;56604;48.652;9.194;2023-09-12T06:28:37;95917.00;;;24.11;58.15
69411;BME280;56604;48.652;9.194;2023-09-12T06:31:03;95911.22;;;24.25;57.93
69411;BME280;56604;48.652;9.194;2023-09-12T06:33:28;95917.00;;;24.11;58.39
69411;BME280;56604;48.652;9.194;2023-09-12T06:35:54;95918.47;;;24.09;58.24
69411;BME280;56604;48.652;9.194;2023-09-12T06:38:21;95918.31;;;24.17;58.45
69411;BME280;56604;48.652;9.194;2023-09-12T06:40:46;95921.06;;;24.05;59.11
69411;BME280;56604;48.652;9.194;2023-09-12T06:43:12;95918.53;;;23.96;59.20
69411;BME280;56604;48.652;9.194;2023-09-12T06:45:38;95926.19;;;23.70;60.64
69411;BME280;56604;48.652;9.194;2023-09-12T06:48:04;95926.88;;;23.26;61.43
69411;BME280;56604;48.652;9.194;2023-09-12T06:50:29;95923.75;;;23.24;61.31
69411;BME280;56604;48.652;9.194;2023-09-12T06:52:54;95926.56;;;23.68;60.07
69411;BME280;56604;48.652;9.194;2023-09-12T06:55:20;95925.66;;;23.64;60.64
69411;BME280;56604;48.652;9.194;2023-09-12T06:57:45;95922.13;;;23.48;61.04
69411;BME280;56604;48.652;9.194;2023-09-12T07:00:12;95928.59;;;23.06;62.27
69411;BME280;56604;48.652;9.194;2023-09-12T07:02:37;95927.66;;;23.27;61.89
69411;BME280;56604;48.652;9.194;2023-09-12T07:05:03;95929.34;;;23.31;62.08
69411;BME280;56604;48.652;9.194;2023-09-12T07:07:29;95934.03;;;23.34;61.68
69411;BME280;56604;48.652;9.194;2023-09-12T07:09:55;95937.63;;;23.26;62.23
69411;BME280;56604;48.652;9.194;2023-09-12T07:12:20;95944.44;;;23.24;61.69
69411;BME280;56604;48.652;9.194;2023-09-12T07:14:45;95941.16;;;23.43;61.76
69411;BME280;56604;48.652;9.194;2023-09-12T07:17:11;95948.03;;;23.56;60.86
69411;BME280;56604;48.652;9.194;2023-09-12T07:19:36;95948.34;;;23.67;60.86
69411;BME280;56604;48.652;9.194;2023-09-12T07:22:01;95957.81;;;23.89;59.95
69411;BME280;56604;48.652;9.194;2023-09-12T07:24:27;95947.06;;;24.77;58.29
69411;BME280;56604;48.652;9.194;2023-09-12T07:26:53;95952.91;;;25.65;55.74
69411;BME280;56604;48.652;9.194;2023-09-12T07:29:18;95956.41;;;25.85;55.07
69411;BME280;56604;48.652;9.194;2023-09-12T07:31:44;95959.13;;;25.69;54.65
69411;BME280;56604;48.652;9.194;2023-09-12T07:34:09;95962.59;;;25.70;55.81
69411;BME280;56604;48.652;9.194;2023-09-12T07:36:35;95959.19;;;26.51;53.46
69411;BME280;56604;48.652;9.194;2023-09-12T07:39:01;95966.56;;;26.34;53.05
69411;BME280;56604;48.652;9.194;2023-09-12T07:41:27;95969.44;;;26.22;53.11
69411;BME280;56604;48.652;9.194;2023-09-12T07:43:52;95966.28;;;26.20;53.85
69411;BME280;56604;48.652;9.194;2023-09-12T07:46:17;95972.25;;;26.29;54.15
69411;BME280;56604;48.652;9.194;2023-09-12T07:48:43;95971.44;;;26.48;53.43
69411;BME280;56604;48.652;9.194;2023-09-12T07:51:15;95978.00;;;26.70;53.10
69411;BME280;56604;48.652;9.194;2023-09-12T07:53:42;95971.91;;;26.73;52.71
69411;BME280;56604;48.652;9.194;2023-09-12T07:56:08;95974.53;;;26.92;51.47
69411;BME280;56604;48.652;9.194;2023-09-12T07:58:35;95970.00;;;27.50;50.42
69411;BME280;56604;48.652;9.194;2023-09-12T08:01:07;95981.25;;;28.50;48.64
69411;BME280;56604;48.652;9.194;2023-09-12T08:03:34;95979.47;;;28.68;47.08
69411;BME280;56604;48.652;9.194;2023-09-12T08:06:00;95979.50;;;28.00;47.87
69411;BME280;56604;48.652;9.194;2023-09-12T08:08:25;95981.00;;;28.32;48.52
69411;BME280;56604;48.652;9.194;2023-09-12T08:10:51;95972.88;;;28.65;48.65
69411;BME280;56604;48.652;9.194;2023-09-12T08:13:16;95978.41;;;28.05;49.70
69411;BME280;56604;48.652;9.194;2023-09-12T08:15:41;95980.13;;;29.02;48.04
69411;BME280;56604;48.652;9.194;2023-09-12T08:18:06;95981.19;;;28.90;47.25
69411;BME280;56604;48.652;9.194;2023-09-12T08:20:32;95990.41;;;27.77;49.18
69411;BME280;56604;48.652;9.194;2023-09-12T08:22:57;95988.84;;;27.76;49.16
69411;BME280;56604;48.652;9.194;2023-09-12T08:25:22;95979.28;;;27.52;51.01
69411;BME280;56604;48.652;9.194;2023-09-12T08:27:49;95976.50;;;27.75;50.47
69411;BME280;56604;48.652;9.194;2023-09-12T08:30:15;95976.50;;;27.49;51.45
69411;BME280;56604;48.652;9.194;2023-09-12T08:32:41;95976.88;;;28.04;51.07
69411;BME280;56604;48.652;9.194;2023-09-12T08:35:09;95964.00;;;28.68;50.47
69411;BME280;56604;48.652;9.194;2023-09-12T08:37:36;95970.44;;;29.53;48.43
69411;BME280;56604;48.652;9.194;2023-09-12T08:40:01;95977.09;;;29.07;48.54
69411;BME280;56604;48.652;9.194;2023-09-12T08:42:26;95971.47;;;30.00;46.69
69411;BME280;56604;48.652;9.194;2023-09-12T08:44:53;95973.72;;;29.87;47.56
69411;BME280;56604;48.652;9.194;2023-09-12T08:47:22;95979.72;;;30.36;45.71
69411;BME280;56604;48.652;9.194;2023-09-12T08:49:47;95977.75;;;31.76;43.57
69411;BME280;56604;48.652;9.194;2023-09-12T08:52:13;95979.09;;;32.34;42.98
69411;BME280;56604;48.652;9.194;2023-09-12T08:54:38;95971.50;;;31.97;43.14
69411;BME280;56604;48.652;9.194;2023-09-12T08:57:05;95970.44;;;31.62;43.22
69411;BME280;56604;48.652;9.194;2023-09-12T08:59:34;95970.44;;;31.48;43.19
69411;BME280;56604;48.652;9.194;2023-09-12T09:02:00;95972.81;;;31.46;44.02
69411;BME280;56604;48.652;9.194;2023-09-12T09:04:28;95971.66;;;31.29;43.86
69411;BME280;56604;48.652;9.194;2023-09-12T09:06:57;95964.50;;;31.99;43.21
69411;BME280;56604;48.652;9.194;2023-09-12T09:09:23;95969.66;;;32.53;41.50
69411;BME280;56604;48.652;9.194;2023-09-12T09:11:49;95980.03;;;31.99;40.77
69411;BME280;56604;48.652;9.194;2023-09-12T09:14:15;95977.63;;;32.82;41.15
69411;BME280;56604;48.652;9.194;2023-09-12T09:16:40;95976.31;;;31.14;42.50
69411;BME280;56604;48.652;9.194;2023-09-12T09:19:06;95971.50;;;31.90;41.80
69411;BME280;56604;48.652;9.194;2023-09-12T09:21:35;95970.91;;;32.38;40.50
69411;BME280;56604;48.652;9.194;2023-09-12T09:24:06;95962.97;;;31.95;41.54
69411;BME280;56604;48.652;9.194;2023-09-12T09:26:49;95969.22;;;31.77;42.13
69411;BME280;56604;48.652;9.194;2023-09-12T09:29:20;95957.38;;;33.31;39.90
69411;BME280;56604;48.652;9.194;2023-09-12T09:31:47;95959.09;;;33.14;40.04
69411;BME280;56604;48.652;9.194;2023-09-12T09:34:17;95955.41;;;33.73;40.44
69411;BME280;56604;48.652;9.194;2023-09-12T09:36:54;95952.53;;;33.46;38.98
69411;BME280;56604;48.652;9.194;2023-09-12T09:39:22;95951.34;;;33.51;38.61
69411;BME280;56604;48.652;9.194;2023-09-12T09:41:56;95956.09;;;33.02;41.27
69411;BME280;56604;48.652;9.194;2023-09-12T09:44:23;95953.31;;;31.69;41.97
69411;BME280;56604;48.652;9.194;2023-09-12T09:46:58;95956.97;;;32.29;41.54
69411;BME280;56604;48.652;9.194;2023-09-12T09:49:25;95953.25;;;32.64;41.03
69411;BME280;56604;48.652;9.194;2023-09-12T09:51:54;95944.72;;;31.81;43.51
69411;BME280;56604;48.652;9.194;2023-09-12T09:54:23;95939.84;;;31.01;43.35
69411;BME280;56604;48.652;9.194;2023-09-12T09:56:53;95934.28;;;31.69;43.25
69411;BME280;56604;48.652;9.194;2023-09-12T09:59:21;95929.53;;;31.98;41.38
69411;BME280;56604;48.652;9.194;2023-09-12T10:01:48;95926.47;;;31.81;42.93
69411;BME280;56604;48.652;9.194;2023-09-12T10:04:14;95929.75;;;32.84;41.27
69411;BME280;56604;48.652;9.194;2023-09-12T10:06:43;95923.09;;;32.37;40.45
69411;BME280;56604;48.652;9.194;2023-09-12T10:09:13;95920.78;;;32.32;40.72
69411;BME280;56604;48.652;9.194;2023-09-12T10:11:40;95917.66;;;31.52;41.78
69411;BME280;56604;48.652;9.194;2023-09-12T10:14:07;95918.91;;;31.08;42.73
69411;BME280;56604;48.652;9.194;2023-09-12T10:16:44;95918.72;;;31.80;42.20
69411;BME280;56604;48.652;9.194;2023-09-12T10:19:23;95921.84;;;31.75;42.36
69411;BME280;56604;48.652;9.194;2023-09-12T10:24:35;95927.41;;;31.28;42.88
69411;BME280;56604;48.652;9.194;2023-09-12T10:27:00;95925.34;;;31.65;42.82
69411;BME280;56604;48.652;9.194;2023-09-12T10:29:27;95924.31;;;31.23;42.78
69411;BME280;56604;48.652;9.194;2023-09-12T10:31:53;95923.88;;;31.56;42.04
69411;BME280;56604;48.652;9.194;2023-09-12T10:34:18;95926.50;;;31.74;40.84
69411;BME280;56604;48.652;9.194;2023-09-12T10:36:45;95926.63;;;32.30;40.62
69411;BME280;56604;48.652;9.194;2023-09-12T10:39:12;95930.22;;;32.13;39.99
69411;BME280;56604;48.652;9.194;2023-09-12T10:41:40;95932.41;;;32.91;38.81
69411;BME280;56604;48.652;9.194;2023-09-12T10:44:17;95929.22;;;33.04;37.84
69411;BME280;56604;48.652;9.194;2023-09-12T10:46:45;95922.56;;;33.46;37.64
69411;BME280;56604;48.652;9.194;2023-09-12T10:49:13;95921.16;;;33.69;37.08
69411;BME280;56604;48.652;9.194;2023-09-12T10:51:40;95931.34;;;33.65;36.89
69411;BME280;56604;48.652;9.194;2023-09-12T10:54:07;95927.94;;;33.15;39.56
69411;BME280;56604;48.652;9.194;2023-09-12T10:56:35;95935.97;;;33.30;37.63
69411;BME280;56604;48.652;9.194;2023-09-12T11:01:36;95929.06;;;33.59;37.27
69411;BME280;56604;48.652;9.194;2023-09-12T11:06:53;95920.31;;;32.96;36.25
69411;BME280;56604;48.652;9.194;2023-09-12T11:09:23;95911.28;;;33.44;37.51
69411;BME280;56604;48.652;9.194;2023-09-12T11:11:55;95918.38;;;32.48;36.16
69411;BME280;56604;48.652;9.194;2023-09-12T11:14:21;95907.25;;;32.77;35.53
69411;BME280;56604;48.652;9.194;2023-09-12T11:19:51;95917.25;;;32.35;37.08
69411;BME280;56604;48.652;9.194;2023-09-12T11:22:30;95917.56;;;32.51;35.90
69411;BME280;56604;48.652;9.194;2023-09-12T11:25:03;95913.22;;;31.98;35.69
69411;BME280;56604;48.652;9.194;2023-09-12T11:28:13;95904.44;;;31.58;37.46
69411;BME280;56604;48.652;9.194;2023-09-12T11:30:21;95903.47;;;32.04;36.30
69411;BME280;56604;48.652;9.194;2023-09-12T11:32:51;95899.06;;;32.24;36.36
69411;BME280;56604;48.652;9.194;2023-09-12T11:35:22;95896.59;;;32.41;36.17
69411;BME280;56604;48.652;9.194;2023-09-12T11:37:54;95894.13;;;32.64;34.65
69411;BME280;56604;48.652;9.194;2023-09-12T11:42:57;95894.38;;;32.81;35.20
69411;BME280;56604;48.652;9.194;2023-09-12T11:45:23;95890.13;;;32.80;34.81
69411;BME280;56604;48.652;9.194;2023-09-12T11:47:48;95883.84;;;32.83;34.88
69411;BME280;56604;48.652;9.194;2023-09-12T11:50:35;95882.38;;;32.75;35.85
69411;BME280;56604;48.652;9.194;2023-09-12T11:53:05;95879.69;;;33.12;34.99
69411;BME280;56604;48.652;9.194;2023-09-12T11:55:44;95880.16;;;33.07;34.58
69411;BME280;56604;48.652;9.194;2023-09-12T11:58:11;95882.31;;;32.82;33.22
69411;BME280;56604;48.652;9.194;2023-09-12T12:00:36;95877.91;;;32.95;34.38
69411;BME280;56604;48.652;9.194;2023-09-12T12:03:03;95877.84;;;32.99;33.43
69411;BME280;56604;48.652;9.194;2023-09-12T12:05:29;95883.91;;;32.79;35.26
69411;BME280;56604;48.652;9.194;2023-09-12T12:07:54;95883.84;;;32.83;33.59
69411;BME280;56604;48.652;9.194;2023-09-12T12:10:20;95884.22;;;32.33;33.96
69411;BME280;56604;48.652;9.194;2023-09-12T12:12:45;95876.84;;;31.56;35.67
69411;BME280;56604;48.652;9.194;2023-09-12T12:15:13;95876.66;;;31.99;38.56
69411;BME280;56604;48.652;9.194;2023-09-12T12:17:42;95875.34;;;31.51;37.80
69411;BME280;56604;48.652;9.194;2023-09-12T12:20:09;95869.22;;;31.08;39.95
69411;BME280;56604;48.652;9.194;2023-09-12T12:22:38;95870.81;;;30.73;39.66
69411;BME280;56604;48.652;9.194;2023-09-12T12:25:09;95868.50;;;30.82;41.98
69411;BME280;56604;48.652;9.194;2023-09-12T12:27:41;95859.97;;;30.95;41.06
69411;BME280;56604;48.652;9.194;2023-09-12T12:30:08;95855.63;;;31.19;40.65
69411;BME280;56604;48.652;9.194;2023-09-12T12:32:36;95856.81;;;31.07;39.85
69411;BME280;56604;48.652;9.194;2023-09-12T12:35:04;95861.50;;;31.03;38.27
69411;BME280;56604;48.652;9.194;2023-09-12T12:37:30;95858.81;;;30.60;39.50
69411;BME280;56604;48.652;9.194;2023-09-12T12:39:56;95853.78;;;30.55;38.72
69411;BME280;56604;48.652;9.194;2023-09-12T12:42:21;95844.09;;;30.46;38.06
69411;BME280;56604;48.652;9.194;2023-09-12T12:44:52;95849.88;;;30.77;38.83
69411;BME280;56604;48.652;9.194;2023-09-12T12:47:20;95851.44;;;30.71;37.56
69411;BME280;56604;48.652;9.194;2023-09-12T12:49:50;95837.41;;;31.05;39.43
69411;BME280;56604;48.652;9.194;2023-09-12T12:52:16;95843.16;;;31.35;40.59
69411;BME280;56604;48.652;9.194;2023-09-12T12:54:42;95838.16;;;31.16;37.19
69411;BME280;56604;48.652;9.194;2023-09-12T12:57:09;95842.13;;;30.86;37.30
69411;BME280;56604;48.652;9.194;2023-09-12T12:59:37;95841.31;;;30.79;37.39
69411;BME280;56604;48.652;9.194;2023-09-12T13:02:03;95833.19;;;30.97;37.69
69411;BME280;56604;48.652;9.194;2023-09-12T13:04:35;95835.00;;;31.32;37.15
69411;BME280;56604;48.652;9.194;2023-09-12T13:07:00;95826.41;;;31.48;35.25
69411;BME280;56604;48.652;9.194;2023-09-12T13:09:26;95819.53;;;31.18;35.29
69411;BME280;56604;48.652;9.194;2023-09-12T13:11:51;95826.44;;;31.44;34.63
69411;BME280;56604;48.652;9.194;2023-09-12T13:14:17;95822.22;;;31.40;34.59
69411;BME280;56604;48.652;9.194;2023-09-12T13:16:44;95819.44;;;31.47;33.42